Time;durP1;ratioP1;P1;durP2;ratioP2;P2;SDS_P1;SDS_P2;PMS_P1;PMS_P2;Temp;Humidity;BMP_temperature;BMP_pressure;BME280_temperature;BME280_humidity;BME280_pressure;Samples;Min_cycle;Max_cycle;Signal;HPM_P1;HPM_P2
2022/09/22 00:01:39;;;;;;;50.37;25.07;;;8.10;99.90;;;;;;9857414;30;20087;-85
2022/09/22 00:06:50;;;;;;;53.63;24.57;;;8.00;99.90;;;;;;9843038;30;20362;-84
2022/09/22 00:11:52;;;;;;;50.43;28.17;;;8.00;99.90;;;;;;9858344;30;20089;-85
2022/09/22 00:16:59;;;;;;;74.17;47.00;;;7.90;99.90;;;;;;9836003;30;20055;-85
2022/09/22 00:22:01;;;;;;;85.90;51.73;;;7.90;99.90;;;;;;9849678;30;20714;-86
2022/09/22 00:27:01;;;;;;;45.70;23.67;;;7.90;99.90;;;;;;9865120;30;20043;-85
2022/09/22 00:32:02;;;;;;;53.13;25.30;;;7.90;99.90;;;;;;9840730;30;20048;-85
2022/09/22 00:37:02;;;;;;;88.67;48.80;;;8.00;99.90;;;;;;9841308;30;20024;-85
2022/09/22 00:42:03;;;;;;;116.70;65.60;;;8.00;99.90;;;;;;9862883;30;20030;-85
2022/09/22 00:47:20;;;;;;;112.80;63.20;;;7.90;99.90;;;;;;9859048;30;20036;-85
2022/09/22 00:52:30;;;;;;;69.40;31.63;;;7.90;99.90;;;;;;9860972;30;20504;-85
2022/09/22 00:57:34;;;;;;;80.17;30.80;;;7.80;99.90;;;;;;9863138;30;20074;-86
2022/09/22 01:02:35;;;;;;;81.17;32.93;;;7.70;99.90;;;;;;9847327;30;20055;-85
2022/09/22 01:07:36;;;;;;;76.00;28.37;;;7.50;99.90;;;;;;9848079;30;20427;-86
2022/09/22 01:12:41;;;;;;;95.10;37.77;;;7.40;99.90;;;;;;9846441;30;20501;-85
2022/09/22 01:17:52;;;;;;;100.93;34.90;;;7.20;99.90;;;;;;9844145;30;20089;-86
2022/09/22 01:23:19;;;;;;;181.97;58.07;;;7.20;99.90;;;;;;9847005;30;20039;-86
2022/09/22 01:28:46;;;;;;;67.27;27.27;;;7.20;99.90;;;;;;9857881;30;20390;-86
2022/09/22 01:34:18;;;;;;;107.93;35.47;;;7.10;99.90;;;;;;9853367;30;20067;-86
2022/09/22 01:39:38;;;;;;;142.83;44.00;;;7.10;99.90;;;;;;9863357;30;20657;-86
2022/09/22 01:44:46;;;;;;;177.53;44.00;;;7.10;99.90;;;;;;9863186;30;20070;-86
2022/09/22 01:49:54;;;;;;;91.70;32.10;;;7.10;99.90;;;;;;9859897;30;20051;-86
2022/09/22 01:55:08;;;;;;;125.57;38.73;;;7.20;99.90;;;;;;9842076;30;20028;-86
2022/09/22 02:00:09;;;;;;;186.97;48.30;;;7.30;99.90;;;;;;9845063;30;20031;-86
2022/09/22 02:05:16;;;;;;;155.53;45.03;;;7.40;99.90;;;;;;9841322;30;20028;-85
2022/09/22 02:10:23;;;;;;;133.77;39.43;;;7.50;99.90;;;;;;9862745;30;20141;-85
2022/09/22 02:20:43;;;;;;;126.53;37.33;;;7.50;99.90;;;;;;9862267;30;20148;-86
2022/09/22 02:25:45;;;;;;;95.70;31.03;;;7.50;99.90;;;;;;9846640;30;20419;-85
2022/09/22 02:30:49;;;;;;;92.13;30.87;;;7.50;99.90;;;;;;9860109;30;20047;-86
2022/09/22 02:35:59;;;;;;;89.77;30.17;;;7.50;99.90;;;;;;9855029;30;20478;-85
2022/09/22 02:41:27;;;;;;;96.80;29.63;;;7.40;99.90;;;;;;9837748;30;20134;-85
2022/09/22 02:46:44;;;;;;;110.37;32.93;;;7.40;99.90;;;;;;9841666;30;20071;-85
2022/09/22 02:51:48;;;;;;;110.50;34.27;;;7.40;99.90;;;;;;9857240;30;20078;-87
2022/09/22 02:56:48;;;;;;;98.43;30.17;;;7.40;99.90;;;;;;9842768;30;20520;-85
2022/09/22 03:01:49;;;;;;;111.03;33.20;;;7.40;99.90;;;;;;9857197;30;20051;-86
2022/09/22 03:06:49;;;;;;;108.67;32.53;;;7.40;99.90;;;;;;9842596;30;20134;-84
2022/09/22 03:11:50;;;;;;;89.47;28.07;;;7.40;99.90;;;;;;9850758;30;20048;-84
2022/09/22 03:16:50;;;;;;;132.63;35.30;;;7.40;99.90;;;;;;9857479;30;20120;-84
2022/09/22 03:21:51;;;;;;;125.33;34.43;;;7.40;99.90;;;;;;9853172;30;20606;-84
2022/09/22 03:26:52;;;;;;;103.70;31.83;;;7.40;99.90;;;;;;9837411;30;20197;-83
2022/09/22 03:31:52;;;;;;;79.23;26.37;;;7.30;99.90;;;;;;9858145;30;20051;-84
2022/09/22 03:36:53;;;;;;;55.67;22.67;;;7.30;99.90;;;;;;9860059;30;20031;-84
2022/09/22 03:41:53;;;;;;;63.03;21.93;;;7.30;99.90;;;;;;9848416;30;20032;-85
2022/09/22 03:46:54;;;;;;;71.77;24.33;;;7.30;99.90;;;;;;9855550;30;20130;-84
2022/09/22 03:51:54;;;;;;;69.63;25.20;;;7.40;99.90;;;;;;9858754;30;20039;-82
2022/09/22 03:56:55;;;;;;;68.80;24.97;;;7.40;99.90;;;;;;9863159;30;20070;-83
2022/09/22 04:01:55;;;;;;;68.40;23.37;;;7.40;99.90;;;;;;9862819;30;20056;-83
2022/09/22 04:06:56;;;;;;;74.50;25.20;;;7.50;99.90;;;;;;9850484;30;20078;-84
2022/09/22 04:11:57;;;;;;;71.40;24.67;;;7.60;99.90;;;;;;9842115;30;20063;-82
2022/09/22 04:16:57;;;;;;;74.03;25.97;;;7.60;99.90;;;;;;9865458;30;20038;-85
2022/09/22 04:21:58;;;;;;;81.20;27.17;;;7.60;99.90;;;;;;9846860;30;20035;-84
2022/09/22 04:26:59;;;;;;;72.07;24.83;;;7.70;99.90;;;;;;9860144;30;20470;-85
2022/09/22 04:31:59;;;;;;;77.00;25.73;;;7.70;99.90;;;;;;9848701;30;20055;-85
2022/09/22 04:37:00;;;;;;;65.67;22.47;;;7.80;99.90;;;;;;9845070;30;20035;-83
2022/09/22 04:42:01;;;;;;;72.23;28.80;;;7.80;99.90;;;;;;9861906;30;20535;-84
2022/09/22 04:47:03;;;;;;;83.27;31.93;;;7.90;99.90;;;;;;9862155;30;20397;-84
2022/09/22 04:52:04;;;;;;;66.07;25.03;;;8.00;99.90;;;;;;9846959;30;20043;-85
2022/09/22 04:57:05;;;;;;;84.93;32.40;;;8.00;99.90;;;;;;9865195;30;20042;-84
2022/09/22 05:02:05;;;;;;;72.67;23.57;;;8.10;99.90;;;;;;9845730;30;20485;-84
2022/09/22 05:07:06;;;;;;;83.37;23.43;;;8.20;99.90;;;;;;9860208;30;20039;-85
2022/09/22 05:12:06;;;;;;;71.37;22.53;;;8.20;99.90;;;;;;9846565;30;20108;-84
2022/09/22 05:17:07;;;;;;;75.20;22.67;;;8.20;99.90;;;;;;9856413;30;20501;-84
2022/09/22 05:22:08;;;;;;;110.33;26.17;;;8.20;99.90;;;;;;9863684;30;20023;-84
2022/09/22 05:27:08;;;;;;;79.33;21.00;;;8.30;99.90;;;;;;9847245;30;20039;-83
2022/09/22 05:32:09;;;;;;;69.07;18.97;;;8.30;99.90;;;;;;9845175;30;20052;-84
2022/09/22 05:37:09;;;;;;;55.87;16.77;;;8.40;99.90;;;;;;9846107;30;20089;-84
2022/09/22 05:42:10;;;;;;;50.23;17.63;;;8.30;99.90;;;;;;9860765;30;20092;-84
2022/09/22 05:47:10;;;;;;;43.07;15.20;;;8.40;99.90;;;;;;9857656;30;20039;-84
2022/09/22 05:52:11;;;;;;;44.00;14.20;;;8.50;99.90;;;;;;9844156;30;20185;-84
2022/09/22 05:57:11;;;;;;;44.70;15.47;;;8.60;99.90;;;;;;9861163;30;20035;-84
2022/09/22 06:02:12;;;;;;;45.90;16.73;;;8.60;99.90;;;;;;9844958;30;20485;-84
2022/09/22 06:07:13;;;;;;;45.20;15.90;;;8.70;99.90;;;;;;9862685;30;20078;-84
2022/09/22 06:12:14;;;;;;;50.83;18.67;;;8.80;99.90;;;;;;9860980;30;20090;-84
2022/09/22 06:17:14;;;;;;;52.27;16.90;;;8.80;99.90;;;;;;9845567;30;20363;-84
2022/09/22 06:22:16;;;;;;;52.37;18.00;;;8.80;99.90;;;;;;9845601;30;20043;-84
2022/09/22 06:27:17;;;;;;;51.17;18.43;;;8.70;99.90;;;;;;9859777;30;20643;-85
2022/09/22 06:32:18;;;;;;;51.93;18.63;;;8.70;99.90;;;;;;9851340;30;20046;-84
2022/09/22 06:37:19;;;;;;;34.40;13.63;;;8.90;99.90;;;;;;9849421;30;20082;-84
2022/09/22 06:42:19;;;;;;;29.43;11.87;;;9.00;99.90;;;;;;9856617;30;20136;-82
2022/09/22 06:47:20;;;;;;;34.20;14.50;;;8.90;99.90;;;;;;9853479;30;20032;-84
2022/09/22 06:52:21;;;;;;;37.23;14.13;;;8.90;99.90;;;;;;9840564;30;20519;-85
2022/09/22 06:57:22;;;;;;;34.60;13.40;;;9.00;99.90;;;;;;9832946;30;20105;-84
2022/09/22 07:02:26;;;;;;;36.60;14.97;;;9.20;99.90;;;;;;9845537;30;20841;-85
2022/09/22 07:07:31;;;;;;;27.10;12.80;;;9.40;99.90;;;;;;9823800;30;20036;-84
2022/09/22 07:12:32;;;;;;;27.63;12.23;;;9.70;99.90;;;;;;9833049;30;20056;-85
2022/09/22 07:17:34;;;;;;;24.17;10.53;;;9.60;99.90;;;;;;9845614;30;20548;-85
2022/09/22 07:22:38;;;;;;;22.05;9.35;;;9.60;99.90;;;;;;9845714;30;20191;-86
2022/09/22 07:27:39;;;;;;;24.35;10.35;;;9.70;99.90;;;;;;9847067;30;20131;-85
2022/09/22 07:32:40;;;;;;;23.35;9.55;;;9.60;99.90;;;;;;9850360;30;20118;-84
2022/09/22 07:37:41;;;;;;;15.77;7.95;;;9.60;99.90;;;;;;9854019;30;20042;-85
2022/09/22 07:42:46;;;;;;;17.08;8.30;;;9.60;99.90;;;;;;9850021;30;20380;-85
2022/09/22 07:53:06;;;;;;;16.85;7.85;;;10.00;99.90;;;;;;9861161;30;20044;-85
2022/09/22 07:58:08;;;;;;;12.20;7.03;;;10.10;99.90;;;;;;9860882;30;20044;-86
2022/09/22 08:03:08;;;;;;;15.27;7.22;;;10.30;99.90;;;;;;9840262;30;20055;-86
2022/09/22 08:08:09;;;;;;;16.00;8.23;;;10.30;99.90;;;;;;9847967;30;20040;-85
2022/09/22 08:13:10;;;;;;;11.50;6.10;;;10.40;99.90;;;;;;9860980;30;20052;-86
2022/09/22 08:18:11;;;;;;;15.38;7.18;;;10.60;99.90;;;;;;9846581;30;20028;-85
2022/09/22 08:23:11;;;;;;;7.47;4.72;;;10.60;99.90;;;;;;9847147;30;20119;-85
2022/09/22 08:28:13;;;;;;;6.97;4.20;;;10.90;99.90;;;;;;9860088;30;20493;-84
2022/09/22 08:33:13;;;;;;;10.55;5.07;;;11.20;99.90;;;;;;9853990;30;20043;-84
2022/09/22 08:38:14;;;;;;;6.45;3.75;;;11.30;99.90;;;;;;9859493;30;20370;-84
2022/09/22 08:43:15;;;;;;;6.70;4.53;;;11.30;99.90;;;;;;9845673;30;20032;-84
2022/09/22 08:53:47;;;;;;;7.95;4.15;;;11.20;99.90;;;;;;9857257;30;20052;-83
2022/09/22 08:59:07;;;;;;;6.40;4.07;;;11.30;99.90;;;;;;9855908;30;20047;-83
2022/09/22 09:04:43;;;;;;;6.25;3.65;;;11.30;99.90;;;;;;9841327;30;20067;-83
2022/09/22 09:09:53;;;;;;;5.53;3.65;;;11.50;99.90;;;;;;9854556;30;20044;-83
2022/09/22 09:14:56;;;;;;;8.15;4.72;;;11.70;99.90;;;;;;9858998;30;20668;-83
2022/09/22 09:20:20;;;;;;;6.50;3.95;;;11.80;99.90;;;;;;9845165;30;20038;-82
2022/09/22 09:25:41;;;;;;;5.93;2.85;;;11.90;99.90;;;;;;9859755;30;20028;-84
2022/09/22 09:30:52;;;;;;;5.18;3.30;;;12.10;99.90;;;;;;9844904;30;20667;-84
2022/09/22 09:35:53;;;;;;;3.75;2.70;;;12.40;99.90;;;;;;9853994;30;20035;-84
2022/09/22 09:41:17;;;;;;;5.57;3.20;;;12.30;99.90;;;;;;9855342;30;20023;-84
2022/09/22 09:46:36;;;;;;;6.35;3.50;;;12.20;99.90;;;;;;9856167;30;20039;-84
2022/09/22 09:51:42;;;;;;;7.93;3.70;;;12.10;99.90;;;;;;9857989;30;20141;-84
2022/09/22 09:57:03;;;;;;;5.45;3.35;;;12.10;99.90;;;;;;9841983;30;20488;-85
2022/09/22 10:02:13;;;;;;;9.40;3.70;;;12.30;99.90;;;;;;9859880;30;20055;-84
2022/09/22 10:07:20;;;;;;;4.43;3.05;;;12.40;99.90;;;;;;9862246;30;20040;-84
2022/09/22 10:12:27;;;;;;;7.43;4.03;;;12.80;99.90;;;;;;9854196;30;20062;-82
2022/09/22 10:17:40;;;;;;;4.00;2.78;;;13.00;99.90;;;;;;9854537;30;20031;-84
2022/09/22 10:22:42;;;;;;;4.20;2.47;;;13.30;99.90;;;;;;9860875;30;20393;-84
2022/09/22 10:27:47;;;;;;;5.47;3.35;;;14.00;99.90;;;;;;9857697;30;20485;-83
2022/09/22 10:33:21;;;;;;;4.00;2.60;;;13.80;99.90;;;;;;9857218;30;20190;-84
2022/09/22 10:38:25;;;;;;;6.80;3.83;;;12.60;99.90;;;;;;9822644;30;20344;-85
2022/09/22 10:43:34;;;;;;;12.25;4.00;;;11.70;99.90;;;;;;9844695;30;20114;-83
2022/09/22 10:49:02;;;;;;;11.02;5.50;;;11.20;99.90;;;;;;9860583;30;20028;-84
2022/09/22 10:54:18;;;;;;;12.52;6.18;;;11.00;99.90;;;;;;9849007;30;20652;-84
2022/09/22 10:59:38;;;;;;;;;;;11.20;99.90;;;;;;9853788;30;20047;-82
2022/09/22 11:04:42;;;;;;;4.25;2.47;;;11.40;99.90;;;;;;9856996;30;19969;-83
2022/09/22 11:15:56;;;;;;;3.33;2.33;;;11.50;99.90;;;;;;9850247;30;20059;-83
2022/09/22 11:21:30;;;;;;;;;;;11.80;99.90;;;;;;9849948;30;20124;-83
2022/09/22 11:26:42;;;;;;;6.30;2.67;;;12.00;99.90;;;;;;9799680;30;19959;-82
2022/09/22 11:32:06;;;;;;;3.95;2.28;;;12.20;99.90;;;;;;9836663;30;20074;-83
2022/09/22 11:37:26;;;;;;;4.43;2.67;;;12.50;99.90;;;;;;9856349;30;20036;-83
2022/09/22 11:42:45;;;;;;;6.22;2.42;;;13.00;99.90;;;;;;9858049;30;20047;-83
2022/09/22 11:48:14;;;;;;;3.17;1.73;;;13.20;99.90;;;;;;9855568;30;20043;-83
2022/09/22 11:53:35;;;;;;;3.15;1.92;;;12.80;99.90;;;;;;9814379;30;20060;-83
2022/09/22 11:58:39;;;;;;;4.45;1.90;;;12.60;99.90;;;;;;9857818;30;20039;-83
2022/09/22 12:03:43;;;;;;;3.20;1.80;;;12.50;99.90;;;;;;9851468;30;20044;-83
2022/09/22 12:09:01;;;;;;;3.28;1.70;;;12.20;99.90;;;;;;9843939;30;20042;-82
2022/09/22 12:14:03;;;;;;;4.22;1.90;;;12.20;99.90;;;;;;9851665;30;20043;-85
2022/09/22 12:19:09;;;;;;;3.75;2.10;;;12.80;99.90;;;;;;9863097;30;20405;-83
2022/09/22 12:24:11;;;;;;;3.47;1.95;;;13.20;99.90;;;;;;9850002;30;20054;-84
2022/09/22 12:29:15;;;;;;;3.45;1.80;;;13.70;99.90;;;;;;9855386;30;20097;-85
2022/09/22 12:34:25;;;;;;;2.08;1.70;;;13.80;99.90;;;;;;9825323;30;20425;-85
2022/09/22 12:39:29;;;;;;;4.00;2.17;;;13.40;99.90;;;;;;9865789;30;20663;-85
2022/09/22 12:44:41;;;;;;;2.35;1.98;;;12.90;99.90;;;;;;9858216;30;20067;-84
2022/09/22 12:50:23;;;;;;;6.90;2.75;;;12.40;99.90;;;;;;9851886;30;20046;-85
2022/09/22 12:55:27;;;;;;;4.72;2.47;;;12.20;99.90;;;;;;9846710;30;20058;-83
2022/09/22 13:00:39;;;;;;;4.53;2.53;;;12.00;99.90;;;;;;9843289;30;20492;-85
2022/09/22 13:05:41;;;;;;;4.30;2.80;;;11.80;99.90;;;;;;9849451;30;20043;-84
2022/09/22 13:11:05;;;;;;;3.90;2.83;;;11.80;99.90;;;;;;9846069;30;20125;-86
2022/09/22 13:16:15;;;;;;;8.45;2.90;;;12.00;99.90;;;;;;9844630;30;20031;-85
2022/09/22 13:21:17;;;;;;;5.90;2.67;;;12.40;99.90;;;;;;9862208;30;20497;-83
2022/09/22 13:26:33;;;;;;;5.13;2.10;;;13.00;99.90;;;;;;9860715;30;20071;-82
2022/09/22 13:31:44;;;;;;;4.38;2.35;;;13.70;99.90;;;;;;9857059;30;20047;-85
2022/09/22 13:36:46;;;;;;;4.68;2.40;;;14.30;99.90;;;;;;9844067;30;20385;-83
2022/09/22 13:41:53;;;;;;;6.15;2.83;;;14.70;99.90;;;;;;9844195;30;20036;-82
2022/09/22 13:46:56;;;;;;;3.20;2.20;;;14.50;99.90;;;;;;9847015;30;20119;-84
2022/09/22 13:52:05;;;;;;;2.45;1.80;;;14.00;99.90;;;;;;9848112;30;20052;-84
2022/09/22 13:57:19;;;;;;;3.13;2.25;;;13.70;99.90;;;;;;9840054;30;20029;-83
2022/09/22 14:02:23;;;;;;;4.35;2.25;;;13.30;99.90;;;;;;9845639;30;20048;-85
2022/09/22 14:07:28;;;;;;;3.97;1.90;;;13.30;99.90;;;;;;9851075;30;20038;-84
2022/09/22 14:12:30;;;;;;;5.32;2.42;;;13.20;99.90;;;;;;9861600;30;20640;-83
2022/09/22 14:17:31;;;;;;;4.15;2.13;;;13.00;99.90;;;;;;9860995;30;20523;-82
2022/09/22 14:22:38;;;;;;;5.63;2.63;;;12.90;99.90;;;;;;9860629;30;20035;-81
2022/09/22 14:27:57;;;;;;;3.28;2.22;;;12.80;99.90;;;;;;9858975;30;20031;-82
2022/09/22 14:33:03;;;;;;;3.38;2.30;;;13.00;99.90;;;;;;9858771;30;20040;-82
2022/09/22 14:38:09;;;;;;;2.67;2.30;;;13.50;99.90;;;;;;9848771;30;20085;-81
2022/09/22 14:43:23;;;;;;;3.67;2.13;;;13.40;99.90;;;;;;9852012;30;20027;-84
2022/09/22 14:48:31;;;;;;;2.45;1.38;;;13.10;99.90;;;;;;9853192;30;20517;-84
2022/09/22 14:53:45;;;;;;;2.78;2.08;;;12.90;99.90;;;;;;9857040;30;20079;-84
2022/09/22 14:58:51;;;;;;;1.52;1.20;;;12.80;99.90;;;;;;9859087;30;20519;-82
2022/09/22 15:04:12;;;;;;;3.22;2.92;;;12.60;99.90;;;;;;9838242;30;20052;-82
2022/09/22 15:09:34;;;;;;;5.22;3.72;;;12.40;99.90;;;;;;9857859;30;20430;-83
2022/09/22 15:14:44;;;;;;;4.07;3.53;;;12.40;99.90;;;;;;9852232;30;20067;-81
2022/09/22 15:19:56;;;;;;;7.40;3.67;;;12.40;99.90;;;;;;9830072;30;20695;-81
2022/09/22 15:24:57;;;;;;;12.38;7.97;;;12.40;99.90;;;;;;9854586;30;20031;-82
2022/09/22 15:29:57;;;;;;;4.53;2.83;;;12.40;99.90;;;;;;9845892;30;20103;-81
2022/09/22 15:34:59;;;;;;;4.32;2.70;;;12.50;99.90;;;;;;9837610;30;20464;-82
2022/09/22 15:40:00;;;;;;;5.50;3.05;;;12.50;99.90;;;;;;9847920;30;20111;-81
2022/09/22 15:45:03;;;;;;;5.68;3.90;;;12.20;99.90;;;;;;9854345;30;20565;-81
2022/09/22 15:50:05;;;;;;;5.50;4.47;;;12.00;99.90;;;;;;9856758;30;20031;-84
2022/09/22 15:55:10;;;;;;;6.28;3.90;;;11.70;99.90;;;;;;9859967;30;20402;-84
2022/09/22 16:00:20;;;;;;;5.93;4.40;;;11.50;99.90;;;;;;9847909;30;20743;-81
2022/09/22 16:05:21;;;;;;;7.85;5.00;;;11.40;99.90;;;;;;9861170;30;20031;-83
2022/09/22 16:10:23;;;;;;;8.63;4.53;;;11.30;99.90;;;;;;9862820;30;20105;-81
2022/09/22 16:15:24;;;;;;;6.65;4.50;;;11.20;99.90;;;;;;9848195;30;20078;-83
2022/09/22 16:20:24;;;;;;;7.70;4.68;;;11.10;99.90;;;;;;9846692;30;20111;-82
2022/09/22 16:25:26;;;;;;;10.52;6.03;;;11.00;99.90;;;;;;9855317;30;20488;-81
2022/09/22 16:30:27;;;;;;;13.63;7.05;;;10.90;99.90;;;;;;9850857;30;20043;-82
2022/09/22 16:35:28;;;;;;;12.40;8.65;;;10.80;99.90;;;;;;9852140;30;20570;-83
2022/09/22 16:40:30;;;;;;;19.17;10.82;;;10.70;99.90;;;;;;9843337;30;20058;-82
2022/09/22 16:50:53;;;;;;;17.73;10.32;;;10.60;99.90;;;;;;9860833;30;20052;-82
2022/09/22 16:55:54;;;;;;;18.70;10.02;;;10.40;99.90;;;;;;9860318;30;20071;-82
2022/09/22 17:01:01;;;;;;;16.40;10.20;;;10.30;99.90;;;;;;9857506;30;20878;-83
2022/09/22 17:06:05;;;;;;;20.10;10.68;;;10.20;99.90;;;;;;9861647;30;20036;-83
2022/09/22 17:11:06;;;;;;;35.35;20.17;;;10.10;99.90;;;;;;9845804;30;20052;-82
2022/09/22 17:16:24;;;;;;;16.38;10.52;;;10.10;99.90;;;;;;9845157;30;20429;-83
2022/09/22 17:21:26;;;;;;;19.20;11.15;;;10.10;99.90;;;;;;9858053;30;20034;-82
2022/09/22 17:26:40;;;;;;;15.23;8.43;;;10.20;99.90;;;;;;9861151;30;20515;-81
2022/09/22 17:31:41;;;;;;;9.82;6.80;;;10.20;99.90;;;;;;9859668;30;20501;-81
2022/09/22 17:36:43;;;;;;;8.90;6.22;;;10.10;99.90;;;;;;9856007;30;20063;-81
2022/09/22 17:41:46;;;;;;;12.25;7.93;;;10.10;99.90;;;;;;9857722;30;20055;-80
2022/09/22 17:57:29;;;;;;;16.35;10.63;;;9.90;99.90;;;;;;9857944;30;20046;-81
2022/09/22 18:02:35;;;;;;;18.25;11.63;;;9.90;99.90;;;;;;9860148;30;20063;-81
2022/09/22 18:07:38;;;;;;;32.05;16.98;;;9.80;99.90;;;;;;9858940;30;20130;-81
2022/09/22 18:12:40;;;;;;;22.73;13.52;;;9.80;99.90;;;;;;9857028;30;20459;-82
2022/09/22 18:17:42;;;;;;;26.70;16.30;;;9.70;99.90;;;;;;9852999;30;20036;-81
2022/09/22 18:22:46;;;;;;;24.90;14.55;;;9.50;99.90;;;;;;9857179;30;20042;-81
2022/09/22 18:27:47;;;;;;;23.20;14.63;;;9.50;99.90;;;;;;9859582;30;20123;-80
2022/09/22 18:32:48;;;;;;;22.67;11.80;;;9.50;99.90;;;;;;9859720;30;20071;-83
2022/09/22 18:37:49;;;;;;;18.67;10.95;;;9.50;99.90;;;;;;9850214;30;20131;-82
2022/09/22 18:42:50;;;;;;;18.37;11.23;;;9.50;99.90;;;;;;9850610;30;20034;-80
2022/09/22 18:47:50;;;;;;;15.57;10.37;;;9.50;99.90;;;;;;9857382;30;20405;-79
2022/09/22 18:52:53;;;;;;;16.70;9.68;;;9.60;99.90;;;;;;9860288;30;20051;-81
2022/09/22 18:57:53;;;;;;;18.90;11.20;;;9.60;99.90;;;;;;9843674;30;20039;-80
2022/09/22 19:02:54;;;;;;;33.83;18.23;;;9.60;99.90;;;;;;9854300;30;20059;-80
2022/09/22 19:07:55;;;;;;;42.50;27.30;;;9.60;99.90;;;;;;9853336;30;20031;-80
2022/09/22 19:12:55;;;;;;;58.15;39.72;;;9.50;99.90;;;;;;9858582;30;20455;-81
2022/09/22 19:17:56;;;;;;;74.18;53.38;;;9.40;99.90;;;;;;9858242;30;20481;-81
2022/09/22 19:22:57;;;;;;;55.93;33.70;;;9.30;99.90;;;;;;9860270;30;20035;-81
2022/09/22 19:27:58;;;;;;;27.87;17.63;;;9.10;99.90;;;;;;9865198;30;20028;-81
2022/09/22 19:33:00;;;;;;;22.90;13.17;;;9.10;99.90;;;;;;9849495;30;20412;-81
2022/09/22 19:38:02;;;;;;;21.07;12.50;;;9.10;99.90;;;;;;9860772;30;20040;-82
2022/09/22 19:43:02;;;;;;;23.80;13.07;;;9.00;99.90;;;;;;9851324;30;20039;-82
2022/09/22 19:48:03;;;;;;;22.03;12.33;;;9.10;99.90;;;;;;9838852;30;20040;-83
2022/09/22 19:53:03;;;;;;;20.43;11.57;;;9.00;99.90;;;;;;9846245;30;20046;-81
2022/09/22 19:58:07;;;;;;;18.60;11.73;;;9.00;99.90;;;;;;9847998;30;20148;-83
2022/09/22 20:03:09;;;;;;;16.97;10.97;;;8.90;99.90;;;;;;9862422;30;20067;-85
2022/09/22 20:08:16;;;;;;;15.97;10.13;;;8.90;99.90;;;;;;9865465;30;20397;-86
2022/09/22 20:18:37;;;;;;;18.47;10.47;;;8.90;99.90;;;;;;9864990;30;20060;-83
2022/09/22 20:23:37;;;;;;;22.37;12.97;;;8.80;99.90;;;;;;9853286;30;20035;-84
2022/09/22 20:28:40;;;;;;;18.33;11.13;;;8.90;99.90;;;;;;9837400;30;20028;-83
2022/09/22 20:33:40;;;;;;;17.30;10.13;;;8.90;99.90;;;;;;9837827;30;20445;-84
2022/09/22 20:39:02;;;;;;;15.63;10.77;;;9.00;99.90;;;;;;9845599;30;20047;-84
2022/09/22 20:44:03;;;;;;;22.73;12.20;;;9.10;99.90;;;;;;9830082;30;20123;-84
2022/09/22 20:49:03;;;;;;;21.33;10.90;;;9.20;99.90;;;;;;9842559;30;20027;-82
2022/09/22 20:54:06;;;;;;;19.50;11.63;;;9.30;99.90;;;;;;9859785;30;20050;-82
2022/09/22 20:59:07;;;;;;;20.80;13.52;;;9.30;99.90;;;;;;9853261;30;20032;-84
2022/09/22 21:04:07;;;;;;;23.50;13.18;;;9.30;99.90;;;;;;9857889;30;20056;-84
2022/09/22 21:14:28;;;;;;;23.50;13.37;;;9.20;99.90;;;;;;9854422;30;20060;-83
2022/09/22 21:19:31;;;;;;;19.70;13.17;;;9.10;99.90;;;;;;9843333;30;20714;-84
2022/09/22 21:24:32;;;;;;;16.00;10.73;;;9.10;99.90;;;;;;9844090;30;20047;-83
2022/09/22 21:29:33;;;;;;;20.87;12.20;;;8.90;99.90;;;;;;9852729;30;20036;-83
2022/09/22 21:34:35;;;;;;;25.93;14.63;;;8.70;99.90;;;;;;9858956;30;20405;-84
2022/09/22 21:39:36;;;;;;;22.30;13.13;;;8.70;99.90;;;;;;9857378;30;20094;-85
2022/09/22 21:44:37;;;;;;;38.77;20.30;;;8.60;99.90;;;;;;9856513;30;20051;-84
2022/09/22 21:49:37;;;;;;;27.50;16.40;;;8.50;99.90;;;;;;9841905;30;20404;-84
2022/09/22 21:54:38;;;;;;;24.47;15.27;;;8.40;99.90;;;;;;9858032;30;20485;-84
2022/09/22 21:59:38;;;;;;;28.80;17.57;;;8.30;99.90;;;;;;9839243;30;20043;-83
2022/09/22 22:04:39;;;;;;;34.67;19.70;;;8.00;99.90;;;;;;9858998;30;20137;-84
2022/09/22 22:09:40;;;;;;;41.73;24.10;;;7.90;99.90;;;;;;9860442;30;20044;-83
2022/09/22 22:14:41;;;;;;;45.27;24.60;;;7.90;99.90;;;;;;9844717;30;20098;-84
2022/09/22 22:19:42;;;;;;;48.27;26.93;;;7.80;99.90;;;;;;9859853;30;20040;-83
2022/09/22 22:24:42;;;;;;;46.53;26.93;;;7.80;99.90;;;;;;9862760;30;20036;-85
2022/09/22 22:29:43;;;;;;;50.43;26.97;;;7.90;99.90;;;;;;9860367;30;20043;-83
2022/09/22 22:34:43;;;;;;;46.30;25.27;;;8.00;99.90;;;;;;9843347;30;20062;-83
2022/09/22 22:39:44;;;;;;;43.70;24.20;;;8.00;99.90;;;;;;9862249;30;20040;-85
2022/09/22 22:44:44;;;;;;;41.57;23.67;;;8.10;99.90;;;;;;9859604;30;20044;-83
2022/09/22 22:49:45;;;;;;;42.93;21.97;;;8.10;99.90;;;;;;9859020;30;20429;-83
2022/09/22 22:54:46;;;;;;;49.43;23.97;;;8.10;99.90;;;;;;9858556;30;20044;-85
2022/09/22 22:59:47;;;;;;;43.10;22.53;;;8.20;99.90;;;;;;9855350;30;20040;-83
2022/09/22 23:04:48;;;;;;;39.73;21.63;;;8.30;99.90;;;;;;9859411;30;20056;-83
2022/09/22 23:10:04;;;;;;;39.70;22.10;;;8.40;99.90;;;;;;9860393;30;20413;-83
2022/09/22 23:15:10;;;;;;;34.97;21.60;;;8.40;99.90;;;;;;9859393;30;20382;-83
2022/09/22 23:20:11;;;;;;;38.88;23.25;;;8.40;99.90;;;;;;9857733;30;20047;-85
2022/09/22 23:25:13;;;;;;;38.60;22.43;;;8.40;99.90;;;;;;9857383;30;20690;-85
2022/09/22 23:30:15;;;;;;;39.70;21.73;;;8.40;99.90;;;;;;9852622;30;20044;-84
2022/09/22 23:35:15;;;;;;;42.23;23.27;;;8.30;99.90;;;;;;9857348;30;20396;-84
2022/09/22 23:40:16;;;;;;;43.00;23.87;;;8.40;99.90;;;;;;9860870;30;20039;-85
2022/09/22 23:45:17;;;;;;;37.63;21.97;;;8.30;99.90;;;;;;9852640;30;20039;-83
2022/09/22 23:50:18;;;;;;;44.67;23.57;;;8.40;99.90;;;;;;9840703;30;20377;-85
2022/09/22 23:55:19;;;;;;;38.93;21.40;;;8.30;99.90;;;;;;9857429;30;20039;-84
